Kakushin Maru — JM6667 — position and weather

sailwx.info

Track history (hours):
 
Tides and Currents Weather Stations Pressure Air Temp Water Temp Dewpoint Dewpoint Depression Visibility Wind Speed Wind Dir Waves Ship Positions

Kakushin Maru

Last reported at 2017-Nov-16 07:40 UTC. Time now 2017-Nov-22 01:41 UTC.
Position N 34°36' E 135°04'.

Length 79 m; draft 5.2 m.

Type: Tanker. MMSI: 431602168.

Date/timePositionNaut miles runAvg speedWind from/ knotsBaromVisibWave heightAir tempDewpointWater temp
2017-Nov-16 07:40N 34°36' E 135°04'211.8
2017-Nov-16 07:29N 34°36' E 135°06'611.7
2017-Nov-16 07:00N 34°36' E 135°13'611.3
2017-Nov-16 06:30N 34°36' E 135°20'5 9.0
2017-Nov-16 05:59N 34°35' E 135°25'0 0.2
2017-Nov-16 05:30N 34°35' E 135°25'0 0.1
2017-Nov-16 00:26N 34°35' E 135°26'0 0.0
2017-Nov-15 23:44N 34°35' E 135°26'0 0.1
2017-Nov-15 22:32N 34°35' E 135°26'0 2.2
2017-Nov-15 22:27N 34°35' E 135°26'4 8.0
2017-Nov-15 22:00N 34°36' E 135°22'2 2.1
2017-Nov-15 20:49N 34°36' E 135°19'0 0.0
2017-Nov-15 20:25N 34°36' E 135°19'0 0.0
2017-Nov-15 19:43N 34°36' E 135°19'0 0.2
2017-Nov-15 19:19N 34°36' E 135°19'3 8.3
2017-Nov-15 19:00N 34°35' E 135°16'713.3
2017-Nov-15 18:31N 34°34' E 135°08'713.6
2017-Nov-15 18:00N 34°37' E 135°00'  
2017-Nov-10 10:40N 35°01' E 139°33'211.7
2017-Nov-10 10:28N 35°02' E 139°36'512.0
2017-Nov-10 10:01N 35°05' E 139°42'611.7
2017-Nov-10 09:31N 35°10' E 139°45'612.1
2017-Nov-10 09:01N 35°16' E 139°46'612.2
2017-Nov-10 08:30N 35°21' E 139°42'611.1
2017-Nov-10 08:01N 35°26' E 139°45'612.4
2017-Nov-10 07:30N 35°30' E 139°52'711.5
2017-Nov-10 06:55N 35°31' E 139°60'1 0.3
2017-Nov-10 02:39N 35°31' E 139°58'0 0.6
2017-Nov-10 02:29N 35°31' E 139°58'0 0.0
2017-Nov-10 01:57N 35°31' E 139°58'0 0.0
2017-Nov-10 01:30N 35°31' E 139°58'0 0.0
2017-Nov-10 01:00N 35°31' E 139°58'0 0.0
2017-Nov-10 00:18N 35°31' E 139°58'0 0.0
2017-Nov-10 00:00N 35°31' E 139°58'0 0.1
2017-Nov-09 23:27N 35°31' E 139°59'0 0.0
2017-Nov-09 23:00N 35°31' E 139°59'0 0.0
2017-Nov-09 21:42N 35°31' E 139°58'0 0.0
2017-Nov-09 21:30N 35°31' E 139°58'0 0.1
2017-Nov-09 20:57N 35°31' E 139°59'0 0.0
2017-Nov-09 20:30N 35°31' E 139°59'0 0.0
2017-Nov-09 19:51N 35°31' E 139°59'0 0.0
2017-Nov-09 19:24N 35°31' E 139°59'0 0.0
2017-Nov-09 18:54N 35°31' E 139°59'0 0.0
2017-Nov-09 18:30N 35°31' E 139°59'0 0.0
2017-Nov-09 17:51N 35°31' E 139°59'0 0.0
2017-Nov-09 17:30N 35°31' E 139°59'0 0.1
2017-Nov-09 17:00N 35°31' E 139°58'0 0.0
2017-Nov-09 16:24N 35°31' E 139°58'0 0.0
2017-Nov-09 16:00N 35°31' E 139°58'0 0.0
2017-Nov-09 15:30N 35°31' E 139°58'0 0.0
2017-Nov-09 14:57N 35°31' E 139°58'0 0.0
2017-Nov-09 14:30N 35°31' E 139°58'0 0.0
2017-Nov-09 14:00N 35°31' E 139°58'0 0.0
2017-Nov-09 13:27N 35°31' E 139°58'0 0.0
2017-Nov-09 12:54N 35°31' E 139°58'0 0.0
2017-Nov-09 12:21N 35°31' E 139°58'0 0.0
2017-Nov-09 12:00N 35°31' E 139°58'0 0.0
2017-Nov-09 11:30N 35°31' E 139°58'0 0.1
2017-Nov-09 11:00N 35°31' E 139°59'0 0.1
2017-Nov-09 10:21N 35°31' E 139°58'0 0.1
2017-Nov-09 10:00N 35°31' E 139°59'0 0.1
2017-Nov-09 09:30N 35°31' E 139°58'0 0.1
2017-Nov-09 08:48N 35°31' E 139°59'0 0.0
2017-Nov-09 08:27N 35°31' E 139°59'0 0.0
2017-Nov-09 07:51N 35°31' E 139°59'0 0.0
2017-Nov-09 07:20N 35°31' E 139°59'0 0.0
2017-Nov-09 06:50N 35°31' E 139°59'0 0.0
2017-Nov-09 06:26N 35°31' E 139°59'0 0.1
2017-Nov-09 05:56N 35°31' E 139°58'0 0.1
2017-Nov-09 05:20N 35°31' E 139°59'0 0.0
2017-Nov-09 04:59N 35°31' E 139°59'0 0.0
2017-Nov-09 04:29N 35°31' E 139°59'0 0.0
2017-Nov-09 03:53N 35°31' E 139°59'0 0.0
2017-Nov-09 03:26N 35°31' E 139°59'0 0.1
2017-Nov-09 02:59N 35°31' E 139°58'0 0.1
2017-Nov-09 02:14N 35°31' E 139°59'0 0.0
2017-Nov-09 00:53N 35°31' E 139°58'0 0.1
2017-Nov-09 00:23N 35°31' E 139°59'0 0.0
2017-Nov-09 00:00N 35°31' E 139°59'0 0.0
2017-Nov-08 23:16N 35°31' E 139°59'0 0.0
2017-Nov-08 22:55N 35°31' E 139°59'1 0.4
2017-Nov-08 21:16N 35°31' E 139°58'412.3
2017-Nov-08 20:59N 35°29' E 139°54'613.0
2017-Nov-08 20:30N 35°26' E 139°48'612.2
2017-Nov-08 20:00N 35°20' E 139°45'612.3
2017-Nov-08 19:30N 35°14' E 139°47'612.4
2017-Nov-08 19:00N 35°08' E 139°46'611.9
2017-Nov-08 18:29N 35°02' E 139°44'11 0.3
2017-Nov-07 06:55N 35°13' E 139°46'510.7
2017-Nov-07 06:30N 35°17' E 139°45'510.8
2017-Nov-07 06:00N 35°22' E 139°42'510.9
2017-Nov-07 05:31N 35°27' E 139°46'510.2
2017-Nov-07 05:01N 35°30' E 139°51'0 0.9
2017-Nov-07 04:29N 35°31' E 139°51'2 4.6
2017-Nov-07 03:57N 35°31' E 139°54'7 5.0
2017-Nov-07 02:30N 35°31' E 140°03'0 0.0
2017-Nov-07 01:55N 35°31' E 140°03'0 0.0
2017-Nov-07 01:30N 35°31' E 140°03'0 0.0
2017-Nov-07 00:59N 35°31' E 140°03'0 0.0
2017-Nov-07 00:27N 35°31' E 140°03'0 0.0
2017-Nov-06 23:58N 35°31' E 140°03'0 0.0
2017-Nov-06 23:23N 35°31' E 140°03'0 0.0
2017-Nov-06 23:01N 35°31' E 140°03'0 0.0
2017-Nov-06 22:31N 35°31' E 140°03'3 3.6
2017-Nov-06 21:34N 35°31' E 139°58'0 0.7
2017-Nov-06 21:29N 35°31' E 139°58'0 0.0
2017-Nov-06 21:00N 35°31' E 139°58'0 0.0
2017-Nov-06 20:26N 35°31' E 139°58'  
Track history (hours):
 
Tides and Currents Weather Stations Pressure Air Temp Water Temp Dewpoint Dewpoint Depression Visibility Wind Speed Wind Dir Waves Ship Positions

Kakushin Maru

Last reported at 2017-Nov-16 07:40 UTC. Time now 2017-Nov-22 01:41 UTC.
Position N 34°36' E 135°04'.

Length 79 m; draft 5.2 m.

Type: Tanker. MMSI: 431602168.

Date/timePositionNaut miles runAvg speedWind from/ knotsBaromVisibWave heightAir tempDewpointWater temp
2017-Nov-16 07:40N 34°36' E 135°04'211.8
2017-Nov-16 07:29N 34°36' E 135°06'611.7
2017-Nov-16 07:00N 34°36' E 135°13'611.3
2017-Nov-16 06:30N 34°36' E 135°20'5 9.0
2017-Nov-16 05:59N 34°35' E 135°25'0 0.2
2017-Nov-16 05:30N 34°35' E 135°25'0 0.1
2017-Nov-16 00:26N 34°35' E 135°26'0 0.0
2017-Nov-15 23:44N 34°35' E 135°26'0 0.1
2017-Nov-15 22:32N 34°35' E 135°26'0 2.2
2017-Nov-15 22:27N 34°35' E 135°26'4 8.0
2017-Nov-15 22:00N 34°36' E 135°22'2 2.1
2017-Nov-15 20:49N 34°36' E 135°19'0 0.0
2017-Nov-15 20:25N 34°36' E 135°19'0 0.0
2017-Nov-15 19:43N 34°36' E 135°19'0 0.2
2017-Nov-15 19:19N 34°36' E 135°19'3 8.3
2017-Nov-15 19:00N 34°35' E 135°16'713.3
2017-Nov-15 18:31N 34°34' E 135°08'713.6
2017-Nov-15 18:00N 34°37' E 135°00'  
2017-Nov-10 10:40N 35°01' E 139°33'211.7
2017-Nov-10 10:28N 35°02' E 139°36'512.0
2017-Nov-10 10:01N 35°05' E 139°42'611.7
2017-Nov-10 09:31N 35°10' E 139°45'612.1
2017-Nov-10 09:01N 35°16' E 139°46'612.2
2017-Nov-10 08:30N 35°21' E 139°42'611.1
2017-Nov-10 08:01N 35°26' E 139°45'612.4
2017-Nov-10 07:30N 35°30' E 139°52'711.5
2017-Nov-10 06:55N 35°31' E 139°60'1 0.3
2017-Nov-10 02:39N 35°31' E 139°58'0 0.6
2017-Nov-10 02:29N 35°31' E 139°58'0 0.0
2017-Nov-10 01:57N 35°31' E 139°58'0 0.0
2017-Nov-10 01:30N 35°31' E 139°58'0 0.0
2017-Nov-10 01:00N 35°31' E 139°58'0 0.0
2017-Nov-10 00:18N 35°31' E 139°58'0 0.0
2017-Nov-10 00:00N 35°31' E 139°58'0 0.1
2017-Nov-09 23:27N 35°31' E 139°59'0 0.0
2017-Nov-09 23:00N 35°31' E 139°59'0 0.0
2017-Nov-09 21:42N 35°31' E 139°58'0 0.0
2017-Nov-09 21:30N 35°31' E 139°58'0 0.1
2017-Nov-09 20:57N 35°31' E 139°59'0 0.0
2017-Nov-09 20:30N 35°31' E 139°59'0 0.0
2017-Nov-09 19:51N 35°31' E 139°59'0 0.0
2017-Nov-09 19:24N 35°31' E 139°59'0 0.0
2017-Nov-09 18:54N 35°31' E 139°59'0 0.0
2017-Nov-09 18:30N 35°31' E 139°59'0 0.0
2017-Nov-09 17:51N 35°31' E 139°59'0 0.0
2017-Nov-09 17:30N 35°31' E 139°59'0 0.1
2017-Nov-09 17:00N 35°31' E 139°58'0 0.0
2017-Nov-09 16:24N 35°31' E 139°58'0 0.0
2017-Nov-09 16:00N 35°31' E 139°58'0 0.0
2017-Nov-09 15:30N 35°31' E 139°58'0 0.0
2017-Nov-09 14:57N 35°31' E 139°58'0 0.0
2017-Nov-09 14:30N 35°31' E 139°58'0 0.0
2017-Nov-09 14:00N 35°31' E 139°58'0 0.0
2017-Nov-09 13:27N 35°31' E 139°58'0 0.0
2017-Nov-09 12:54N 35°31' E 139°58'0 0.0
2017-Nov-09 12:21N 35°31' E 139°58'0 0.0
2017-Nov-09 12:00N 35°31' E 139°58'0 0.0
2017-Nov-09 11:30N 35°31' E 139°58'0 0.1
2017-Nov-09 11:00N 35°31' E 139°59'0 0.1
2017-Nov-09 10:21N 35°31' E 139°58'0 0.1
2017-Nov-09 10:00N 35°31' E 139°59'0 0.1
2017-Nov-09 09:30N 35°31' E 139°58'0 0.1
2017-Nov-09 08:48N 35°31' E 139°59'0 0.0
2017-Nov-09 08:27N 35°31' E 139°59'0 0.0
2017-Nov-09 07:51N 35°31' E 139°59'0 0.0
2017-Nov-09 07:20N 35°31' E 139°59'0 0.0
2017-Nov-09 06:50N 35°31' E 139°59'0 0.0
2017-Nov-09 06:26N 35°31' E 139°59'0 0.1
2017-Nov-09 05:56N 35°31' E 139°58'0 0.1
2017-Nov-09 05:20N 35°31' E 139°59'0 0.0
2017-Nov-09 04:59N 35°31' E 139°59'0 0.0
2017-Nov-09 04:29N 35°31' E 139°59'0 0.0
2017-Nov-09 03:53N 35°31' E 139°59'0 0.0
2017-Nov-09 03:26N 35°31' E 139°59'0 0.1
2017-Nov-09 02:59N 35°31' E 139°58'0 0.1
2017-Nov-09 02:14N 35°31' E 139°59'0 0.0
2017-Nov-09 00:53N 35°31' E 139°58'0 0.1
2017-Nov-09 00:23N 35°31' E 139°59'0 0.0
2017-Nov-09 00:00N 35°31' E 139°59'0 0.0
2017-Nov-08 23:16N 35°31' E 139°59'0 0.0
2017-Nov-08 22:55N 35°31' E 139°59'1 0.4
2017-Nov-08 21:16N 35°31' E 139°58'412.3
2017-Nov-08 20:59N 35°29' E 139°54'613.0
2017-Nov-08 20:30N 35°26' E 139°48'612.2
2017-Nov-08 20:00N 35°20' E 139°45'612.3
2017-Nov-08 19:30N 35°14' E 139°47'612.4
2017-Nov-08 19:00N 35°08' E 139°46'611.9
2017-Nov-08 18:29N 35°02' E 139°44'11 0.3
2017-Nov-07 06:55N 35°13' E 139°46'510.7
2017-Nov-07 06:30N 35°17' E 139°45'510.8
2017-Nov-07 06:00N 35°22' E 139°42'510.9
2017-Nov-07 05:31N 35°27' E 139°46'510.2
2017-Nov-07 05:01N 35°30' E 139°51'0 0.9
2017-Nov-07 04:29N 35°31' E 139°51'2 4.6
2017-Nov-07 03:57N 35°31' E 139°54'7 5.0
2017-Nov-07 02:30N 35°31' E 140°03'0 0.0
2017-Nov-07 01:55N 35°31' E 140°03'0 0.0
2017-Nov-07 01:30N 35°31' E 140°03'0 0.0
2017-Nov-07 00:59N 35°31' E 140°03'0 0.0
2017-Nov-07 00:27N 35°31' E 140°03'0 0.0
2017-Nov-06 23:58N 35°31' E 140°03'0 0.0
2017-Nov-06 23:23N 35°31' E 140°03'0 0.0
2017-Nov-06 23:01N 35°31' E 140°03'0 0.0
2017-Nov-06 22:31N 35°31' E 140°03'3 3.6
2017-Nov-06 21:34N 35°31' E 139°58'0 0.7
2017-Nov-06 21:29N 35°31' E 139°58'0 0.0
2017-Nov-06 21:00N 35°31' E 139°58'0 0.0
2017-Nov-06 20:26N 35°31' E 139°58'  

Dump ship's entire track history